Time;durP1;ratioP1;P1;durP2;ratioP2;P2;SDS_P1;SDS_P2;PMS_P1;PMS_P2;Temp;Humidity;BMP_temperature;BMP_pressure;BME280_temperature;BME280_humidity;BME280_pressure;Samples;Min_cycle;Max_cycle;Signal;HPM_P1;HPM_P2
2023/12/04 00:01:08;;;;;;;30.83;24.10;;;;;;;-0.16;100.00;101225.38;4983571;28;20102;-80
2023/12/04 00:03:34;;;;;;;32.55;24.27;;;;;;;-0.17;100.00;101221.09;4979845;28;20023;-81
2023/12/04 00:05:59;;;;;;;31.50;23.65;;;;;;;-0.17;100.00;101215.94;4952520;28;20379;-80
2023/12/04 00:08:24;;;;;;;32.65;24.02;;;;;;;-0.16;100.00;101215.03;4981328;28;20035;-80
2023/12/04 00:10:51;;;;;;;32.55;23.90;;;;;;;-0.14;100.00;101207.25;4969668;28;20113;-80
2023/12/04 00:13:17;;;;;;;32.53;24.27;;;;;;;-0.14;100.00;101210.69;4962653;28;20199;-80
2023/12/04 00:15:44;;;;;;;32.42;24.08;;;;;;;-0.15;100.00;101206.41;4989071;28;20085;-80
2023/12/04 00:18:09;;;;;;;32.20;24.02;;;;;;;-0.15;100.00;101200.38;4988163;28;20588;-80
2023/12/04 00:20:35;;;;;;;31.45;23.50;;;;;;;-0.14;100.00;101194.31;4976723;28;20382;-80
2023/12/04 00:23:00;;;;;;;31.10;23.90;;;;;;;-0.14;100.00;101192.59;4969018;28;20034;-80
2023/12/04 00:25:26;;;;;;;32.03;23.70;;;;;;;-0.11;100.00;101197.69;4969873;28;20027;-80
2023/12/04 00:27:51;;;;;;;30.70;22.85;;;;;;;-0.12;100.00;101193.41;4970056;28;20062;-80
2023/12/04 00:30:16;;;;;;;31.25;23.15;;;;;;;-0.14;100.00;101187.41;4971922;28;20528;-80
2023/12/04 00:32:42;;;;;;;31.13;23.52;;;;;;;-0.12;100.00;101185.63;4973202;28;20041;-80
2023/12/04 00:35:07;;;;;;;29.98;22.85;;;;;;;-0.13;100.00;101188.25;4988295;28;20508;-80
2023/12/04 00:37:37;;;;;;;32.58;23.58;;;;;;;-0.14;100.00;101182.25;4987482;28;20447;-80
2023/12/04 00:40:02;;;;;;;31.88;23.45;;;;;;;-0.15;100.00;101180.53;4970803;28;20042;-80
2023/12/04 00:42:28;;;;;;;31.10;22.55;;;;;;;-0.14;100.00;101182.25;4969933;28;20030;-80
2023/12/04 00:44:53;;;;;;;31.42;23.52;;;;;;;-0.13;100.00;101173.59;4983827;28;20135;-80
2023/12/04 00:47:18;;;;;;;31.10;23.45;;;;;;;-0.12;100.00;101174.44;4987559;28;20030;-80
2023/12/04 00:49:44;;;;;;;29.40;21.73;;;;;;;-0.11;100.00;101176.13;4989419;28;20458;-80
2023/12/04 00:52:09;;;;;;;28.42;21.52;;;;;;;-0.12;100.00;101170.13;4987364;28;20030;-80
2023/12/04 00:54:35;;;;;;;29.80;22.10;;;;;;;-0.13;100.00;101171.00;4988722;28;20845;-80
2023/12/04 00:57:00;;;;;;;29.67;22.33;;;;;;;-0.11;100.00;101160.63;4972510;28;20418;-80
2023/12/04 00:59:25;;;;;;;28.33;21.70;;;;;;;-0.11;100.00;101161.47;4979124;28;20545;-80
2023/12/04 01:01:50;;;;;;;29.33;22.10;;;;;;;-0.12;100.00;101162.34;4992659;28;20426;-80
2023/12/04 01:04:16;;;;;;;28.90;22.10;;;;;;;-0.11;100.00;101155.44;4964529;28;20126;-80
2023/12/04 01:06:41;;;;;;;29.45;22.23;;;;;;;-0.11;100.00;101151.13;4990998;28;20382;-80
2023/12/04 01:09:06;;;;;;;28.67;22.70;;;;;;;-0.10;100.00;101144.22;4991115;28;20105;-80
2023/12/04 01:11:32;;;;;;;29.83;21.90;;;;;;;-0.09;100.00;101145.91;4991127;28;20113;-80
2023/12/04 01:13:57;;;;;;;30.42;22.00;;;;;;;-0.08;100.00;101145.88;4968470;28;20468;-80
2023/12/04 01:16:23;;;;;;;29.20;20.92;;;;;;;-0.09;100.00;101148.50;4973024;28;20031;-80
2023/12/04 01:18:48;;;;;;;27.33;20.33;;;;;;;-0.07;100.00;101146.72;4974263;28;20032;-78
2023/12/04 01:21:14;;;;;;;26.00;20.27;;;;;;;-0.07;100.00;101141.56;4990610;28;20042;-79
2023/12/04 01:23:39;;;;;;;30.08;21.83;;;;;;;-0.07;100.00;101139.81;4990600;28;20050;-79
2023/12/04 01:26:05;;;;;;;26.70;20.25;;;;;;;-0.05;100.00;101125.09;4989292;28;20026;-80
2023/12/04 01:28:30;;;;;;;28.60;21.15;;;;;;;-0.04;100.00;101137.16;4973065;28;20511;-79
2023/12/04 01:30:56;;;;;;;25.55;19.75;;;;;;;-0.02;100.00;101130.19;4973959;28;20085;-79
2023/12/04 01:33:21;;;;;;;23.73;19.23;;;;;;;-0.02;100.00;101125.03;4989380;28;20033;-79
2023/12/04 01:35:47;;;;;;;27.60;20.35;;;;;;;-0.01;100.00;101123.28;4989307;28;20030;-79
2023/12/04 01:38:12;;;;;;;25.80;19.58;;;;;;;0.01;100.00;101125.88;4990984;28;20050;-79
2023/12/04 01:40:37;;;;;;;24.05;20.00;;;;;;;0.01;100.00;101125.88;4971803;28;20402;-80
2023/12/04 01:43:03;;;;;;;26.45;19.52;;;;;;;0.02;100.00;101127.56;4990463;28;20089;-79
2023/12/04 01:45:28;;;;;;;26.05;19.63;;;;;;;0.01;100.00;101129.31;4989314;28;20030;-80
2023/12/04 01:47:54;;;;;;;27.30;20.33;;;;;;;0.01;100.00;101123.28;4989773;28;20022;-80
2023/12/04 01:50:19;;;;;;;25.40;19.95;;;;;;;-0.01;100.00;101118.97;4990869;28;20458;-80
2023/12/04 01:52:46;;;;;;;26.75;19.65;;;;;;;0.02;100.00;101112.91;4990981;28;20031;-80
2023/12/04 01:55:12;;;;;;;23.85;18.77;;;;;;;0.02;100.00;101109.47;4973583;28;20486;-80
2023/12/04 01:57:38;;;;;;;24.52;19.15;;;;;;;0.03;100.00;101111.16;4958562;28;20022;-80
2023/12/04 02:00:06;;;;;;;25.25;18.75;;;;;;;0.02;100.00;101102.53;4976143;28;20038;-80
2023/12/04 02:02:31;;;;;;;24.67;18.80;;;;;;;0.02;100.00;101099.97;4986421;28;20530;-80
2023/12/04 02:04:59;;;;;;;23.77;18.30;;;;;;;0.04;100.00;101098.19;4973408;28;20029;-80
2023/12/04 02:07:25;;;;;;;24.48;18.60;;;;;;;0.05;100.00;101088.69;4971684;28;20022;-80
2023/12/04 02:09:50;;;;;;;22.38;17.27;;;;;;;0.05;100.00;101088.69;4989477;28;20547;-80
2023/12/04 02:12:16;;;;;;;23.33;17.63;;;;;;;0.07;100.00;101090.34;4986863;28;20049;-80
2023/12/04 02:14:43;;;;;;;22.83;18.15;;;;;;;0.06;100.00;101080.88;4988701;28;20042;-80
2023/12/04 02:17:08;;;;;;;23.27;17.73;;;;;;;0.07;100.00;101079.13;4984282;28;20030;-80
2023/12/04 02:19:34;;;;;;;23.73;18.45;;;;;;;0.08;100.00;101071.34;4990549;28;20034;-80
2023/12/04 02:21:59;;;;;;;22.92;17.75;;;;;;;0.09;100.00;101077.38;4991525;28;20054;-80
2023/12/04 02:24:25;;;;;;;22.48;17.45;;;;;;;0.10;100.00;101076.47;4989410;28;20030;-80
2023/12/04 02:27:04;;;;;;;22.25;17.05;;;;;;;0.11;100.00;101076.44;4989829;28;20026;-80
2023/12/04 02:29:34;;;;;;;24.65;18.02;;;;;;;0.11;100.00;101078.16;4987843;28;20037;-80
2023/12/04 02:32:03;;;;;;;22.02;17.52;;;;;;;0.12;100.00;101072.09;4972603;28;20026;-80
2023/12/04 02:34:32;;;;;;;21.60;16.50;;;;;;;0.12;100.00;101072.94;4990810;28;20030;-80
2023/12/04 02:36:58;;;;;;;19.50;16.33;;;;;;;0.14;100.00;101066.00;4971772;28;20048;-81
2023/12/04 02:39:24;;;;;;;21.45;16.38;;;;;;;0.15;100.00;101066.84;4989646;28;20073;-80
2023/12/04 02:41:50;;;;;;;21.17;16.92;;;;;;;0.13;100.00;101064.28;4972554;28;20112;-80
2023/12/04 02:44:16;;;;;;;22.25;17.30;;;;;;;0.12;100.00;101057.44;4987839;28;20030;-80
2023/12/04 02:46:41;;;;;;;19.63;16.17;;;;;;;0.12;100.00;101044.50;4970170;28;20080;-80
2023/12/04 02:49:06;;;;;;;21.45;16.50;;;;;;;0.12;100.00;101041.91;4971844;28;20037;-80
2023/12/04 02:51:32;;;;;;;20.60;16.98;;;;;;;0.14;100.00;101040.13;4971677;28;20034;-81
2023/12/04 02:54:01;;;;;;;21.42;17.15;;;;;;;0.14;100.00;101036.69;4987846;28;20394;-81
2023/12/04 02:56:26;;;;;;;19.55;16.10;;;;;;;0.14;100.00;101041.88;4987841;28;20402;-80
2023/12/04 02:58:51;;;;;;;20.38;16.17;;;;;;;0.13;100.00;101029.81;4979290;28;20023;-81
2023/12/04 03:01:17;;;;;;;20.25;15.63;;;;;;;0.12;100.00;101025.53;4970392;28;20030;-80
2023/12/04 03:03:42;;;;;;;19.77;16.00;;;;;;;0.14;100.00;101026.34;4971761;28;20037;-80
2023/12/04 03:06:07;;;;;;;19.85;15.93;;;;;;;0.14;100.00;101013.41;4987125;28;20422;-81
2023/12/04 03:08:33;;;;;;;17.92;15.00;;;;;;;0.14;100.00;101016.00;4987785;28;20117;-80
2023/12/04 03:10:58;;;;;;;21.77;16.35;;;;;;;0.13;100.00;101009.97;4970762;28;20026;-80
2023/12/04 03:13:23;;;;;;;21.25;16.05;;;;;;;0.14;100.00;101000.47;4972820;28;20487;-81
2023/12/04 03:15:49;;;;;;;18.55;15.13;;;;;;;0.14;100.00;101000.47;4995445;28;20364;-80
2023/12/04 03:18:14;;;;;;;20.40;16.25;;;;;;;0.13;100.00;101001.38;4990393;28;20031;-82
2023/12/04 03:20:40;;;;;;;20.80;15.93;;;;;;;0.14;100.00;100995.31;4977059;28;20054;-81
2023/12/04 03:23:05;;;;;;;20.58;16.00;;;;;;;0.15;100.00;100991.81;4987130;28;20037;-81
2023/12/04 03:25:31;;;;;;;21.02;16.55;;;;;;;0.15;100.00;100981.47;4988207;28;20506;-81
2023/12/04 03:27:56;;;;;;;19.67;15.73;;;;;;;0.14;100.00;100974.59;4971847;28;20038;-79
2023/12/04 03:30:21;;;;;;;18.27;14.90;;;;;;;0.17;100.00;100974.50;4990246;28;20030;-80
2023/12/04 03:32:47;;;;;;;17.65;14.55;;;;;;;0.17;100.00;100974.50;4987751;28;20038;-80
2023/12/04 03:35:12;;;;;;;18.00;14.80;;;;;;;0.16;100.00;100962.47;4987030;28;20096;-80
2023/12/04 03:37:38;;;;;;;17.60;13.65;;;;;;;0.19;100.00;100963.22;4987340;28;20045;-80
2023/12/04 03:40:03;;;;;;;17.38;14.63;;;;;;;0.20;100.00;100969.25;4970329;28;20505;-80
2023/12/04 03:42:29;;;;;;;19.15;15.32;;;;;;;0.20;100.00;100958.91;4986940;28;20068;-80
2023/12/04 03:44:54;;;;;;;18.17;14.60;;;;;;;0.21;100.00;100952.84;4971232;28;20076;-80
2023/12/04 03:47:20;;;;;;;18.73;14.75;;;;;;;0.22;100.00;100946.75;4969320;28;20368;-80
2023/12/04 03:49:45;;;;;;;18.10;14.40;;;;;;;0.23;100.00;100949.31;4971521;28;20022;-80
2023/12/04 03:52:10;;;;;;;18.10;14.43;;;;;;;0.23;100.00;100945.88;4987226;28;20022;-80
2023/12/04 03:54:36;;;;;;;19.10;13.85;;;;;;;0.23;100.00;100948.47;4986633;28;20142;-80
2023/12/04 03:57:02;;;;;;;16.85;14.55;;;;;;;0.25;100.00;100946.66;4987560;28;20387;-80
2023/12/04 03:59:27;;;;;;;17.63;13.85;;;;;;;0.26;100.00;100938.00;4967392;28;20030;-80
2023/12/04 04:01:52;;;;;;;18.17;14.18;;;;;;;0.26;100.00;100940.59;4968940;28;20026;-81
2023/12/04 04:04:18;;;;;;;17.55;13.95;;;;;;;0.27;100.00;100937.13;4970476;28;20116;-80
2023/12/04 04:06:43;;;;;;;17.80;14.15;;;;;;;0.28;100.00;100925.88;4971233;28;20165;-80
2023/12/04 04:09:08;;;;;;;19.05;14.68;;;;;;;0.26;100.00;100927.66;4985402;28;20113;-80
2023/12/04 04:11:35;;;;;;;18.02;14.48;;;;;;;0.26;100.00;100925.06;4968977;28;20545;-81
2023/12/04 04:14:00;;;;;;;19.25;14.18;;;;;;;0.26;100.00;100917.31;4968462;28;20054;-80
2023/12/04 04:16:26;;;;;;;18.42;14.38;;;;;;;0.25;100.00;100911.28;4983445;28;20391;-80
2023/12/04 04:18:51;;;;;;;16.80;13.93;;;;;;;0.28;100.00;100912.94;4971052;28;20551;-80
2023/12/04 04:21:16;;;;;;;18.42;14.38;;;;;;;0.25;100.00;100911.28;4986960;28;20759;-80
2023/12/04 04:23:42;;;;;;;17.58;14.18;;;;;;;0.25;100.00;100915.63;4970068;28;20478;-80
2023/12/04 04:26:07;;;;;;;16.48;14.20;;;;;;;0.25;100.00;100906.13;4969977;28;20030;-80
2023/12/04 04:28:33;;;;;;;17.67;14.10;;;;;;;0.25;100.00;100903.53;4970654;28;20030;-80
2023/12/04 04:30:58;;;;;;;18.77;14.82;;;;;;;0.27;100.00;100899.16;4972346;28;20041;-80
2023/12/04 04:33:24;;;;;;;17.33;14.45;;;;;;;0.27;100.00;100893.13;4974577;28;20049;-80
2023/12/04 04:35:49;;;;;;;19.08;14.73;;;;;;;0.27;100.00;100882.78;4986765;28;20041;-80
2023/12/04 04:38:14;;;;;;;16.45;14.00;;;;;;;0.28;100.00;100889.66;4970715;28;20067;-80
2023/12/04 04:40:42;;;;;;;18.25;13.88;;;;;;;0.29;100.00;100886.16;4972030;28;20034;-80
2023/12/04 04:43:08;;;;;;;17.35;14.13;;;;;;;0.30;100.00;100885.28;4987082;28;20478;-80
2023/12/04 04:45:33;;;;;;;18.27;13.82;;;;;;;0.28;100.00;100885.31;4972927;28;20526;-80
2023/12/04 04:47:58;;;;;;;17.02;13.90;;;;;;;0.28;100.00;100885.31;4971083;28;20106;-80
2023/12/04 04:50:24;;;;;;;16.77;13.30;;;;;;;0.29;100.00;100886.16;4971239;28;20034;-80
2023/12/04 04:52:49;;;;;;;18.92;13.88;;;;;;;0.29;100.00;100886.16;4972943;28;20031;-80
2023/12/04 04:55:14;;;;;;;16.35;13.27;;;;;;;0.29;100.00;100886.16;4962428;28;20019;-80
2023/12/04 04:57:40;;;;;;;19.20;14.23;;;;;;;0.30;100.00;100880.94;4970272;28;20026;-80
2023/12/04 05:00:06;;;;;;;16.58;13.90;;;;;;;0.30;100.00;100891.28;4961519;28;20138;-80
2023/12/04 05:02:31;;;;;;;16.70;13.82;;;;;;;0.30;100.00;100882.69;4972055;28;20118;-80
2023/12/04 05:04:57;;;;;;;17.33;13.38;;;;;;;0.31;100.00;100880.06;4969624;28;20026;-80
2023/12/04 05:07:22;;;;;;;15.45;13.07;;;;;;;0.32;100.00;100878.31;4968868;28;20040;-81
2023/12/04 05:09:48;;;;;;;18.00;13.40;;;;;;;0.33;100.00;100882.59;4972397;28;20034;-81
2023/12/04 05:12:13;;;;;;;16.63;13.70;;;;;;;0.32;100.00;100876.56;4969125;28;20037;-81
2023/12/04 05:14:38;;;;;;;16.58;13.02;;;;;;;0.32;100.00;100879.16;4971486;28;20034;-81
2023/12/04 05:17:04;;;;;;;18.58;14.18;;;;;;;0.32;100.00;100881.75;4970028;28;20431;-81
2023/12/04 05:19:29;;;;;;;19.13;13.98;;;;;;;0.31;100.00;100858.50;4971053;28;20031;-81
2023/12/04 05:21:54;;;;;;;16.27;13.10;;;;;;;0.32;100.00;100866.22;4987385;28;20038;-81
2023/12/04 05:24:20;;;;;;;15.57;13.57;;;;;;;0.32;100.00;100858.47;4961196;28;20153;-82
2023/12/04 05:26:45;;;;;;;16.20;13.27;;;;;;;0.34;100.00;100850.63;4969940;28;20045;-81
2023/12/04 05:29:10;;;;;;;17.50;13.52;;;;;;;0.36;100.00;100850.59;4971721;28;20365;-81
2023/12/04 05:31:36;;;;;;;15.63;13.25;;;;;;;0.35;100.00;100834.22;4970785;28;20429;-81
2023/12/04 05:34:01;;;;;;;17.02;13.50;;;;;;;0.35;100.00;100834.22;4965156;28;20028;-81
2023/12/04 05:36:27;;;;;;;16.77;13.73;;;;;;;0.33;100.00;100833.44;4972012;28;20050;-81
2023/12/04 05:38:53;;;;;;;17.05;13.88;;;;;;;0.31;100.00;100830.03;4991251;28;20390;-81
2023/12/04 05:41:18;;;;;;;15.95;14.23;;;;;;;0.31;100.00;100827.47;4989086;28;20050;-81
2023/12/04 05:43:44;;;;;;;18.63;13.65;;;;;;;0.28;100.00;100832.72;4972054;28;20053;-81
2023/12/04 05:46:09;;;;;;;16.90;14.23;;;;;;;0.28;100.00;100837.91;4971296;28;20022;-81
2023/12/04 05:48:35;;;;;;;18.05;14.45;;;;;;;0.28;100.00;100846.50;4972371;28;20516;-81
2023/12/04 05:51:00;;;;;;;15.88;13.63;;;;;;;0.27;100.00;100838.81;4990344;28;20022;-79
2023/12/04 05:53:25;;;;;;;15.55;13.90;;;;;;;0.26;100.00;100829.34;4989767;28;20034;-80
2023/12/04 05:55:51;;;;;;;16.80;13.55;;;;;;;0.27;100.00;100825.88;4973639;28;20030;-80
2023/12/04 05:58:16;;;;;;;15.02;13.40;;;;;;;0.27;100.00;100818.09;4985375;28;20073;-80
2023/12/04 06:00:41;;;;;;;16.00;13.52;;;;;;;0.28;100.00;100818.06;4965779;28;20482;-80
2023/12/04 06:03:07;;;;;;;16.98;14.27;;;;;;;0.26;100.00;100817.25;4978554;28;20069;-80
2023/12/04 06:05:32;;;;;;;14.85;12.55;;;;;;;0.28;100.00;100814.63;4986685;28;20081;-80
2023/12/04 06:07:58;;;;;;;16.17;12.85;;;;;;;0.30;100.00;100816.25;4990518;28;20046;-80
2023/12/04 06:10:23;;;;;;;15.05;12.77;;;;;;;0.31;100.00;100812.78;4970581;28;20415;-79
2023/12/04 06:12:48;;;;;;;15.00;12.52;;;;;;;0.33;100.00;100802.38;4972251;28;20080;-81
2023/12/04 06:15:14;;;;;;;14.32;12.82;;;;;;;0.32;100.00;100803.28;4970376;28;20022;-81
2023/12/04 06:17:39;;;;;;;14.80;12.88;;;;;;;0.32;100.00;100792.91;4973032;28;20030;-81
2023/12/04 06:20:06;;;;;;;15.40;13.75;;;;;;;0.32;100.00;100782.56;4972839;28;20043;-80
2023/12/04 06:22:32;;;;;;;15.45;13.85;;;;;;;0.30;100.00;100774.00;4972313;28;20466;-81
2023/12/04 06:24:58;;;;;;;15.32;13.73;;;;;;;0.31;100.00;100778.28;4989540;28;20053;-81
2023/12/04 06:27:23;;;;;;;14.90;13.02;;;;;;;0.31;100.00;100776.56;4990428;28;20054;-80
2023/12/04 06:29:50;;;;;;;14.52;12.98;;;;;;;0.32;100.00;100767.03;4971701;28;20057;-80
2023/12/04 06:32:16;;;;;;;14.95;13.35;;;;;;;0.32;100.00;100764.47;4987278;28;20034;-80
2023/12/04 06:34:41;;;;;;;15.30;12.75;;;;;;;0.29;100.00;100756.81;4988608;28;20394;-80
2023/12/04 06:37:11;;;;;;;13.38;11.98;;;;;;;0.29;100.00;100756.81;4970922;28;20491;-80
2023/12/04 06:39:38;;;;;;;13.98;12.48;;;;;;;0.29;100.00;100756.81;4989802;28;20026;-80
2023/12/04 06:42:08;;;;;;;14.65;12.73;;;;;;;0.27;100.00;100743.91;4990580;28;20034;-80
2023/12/04 06:44:33;;;;;;;13.38;11.95;;;;;;;0.26;100.00;100750.00;4973284;28;20037;-80
2023/12/04 06:47:03;;;;;;;13.77;11.73;;;;;;;0.26;100.00;100752.56;4988940;28;20413;-80
2023/12/04 06:49:32;;;;;;;14.30;12.05;;;;;;;0.27;100.00;100748.25;4987974;28;20121;-80
2023/12/04 06:51:59;;;;;;;13.00;11.35;;;;;;;0.25;100.00;100750.88;4989598;28;20478;-80
2023/12/04 06:54:24;;;;;;;15.82;11.40;;;;;;;0.25;100.00;100760.38;4989690;28;20431;-80
2023/12/04 06:56:50;;;;;;;12.60;10.90;;;;;;;0.26;100.00;100760.34;4990884;28;20037;-80
2023/12/04 06:59:17;;;;;;;12.48;11.18;;;;;;;0.25;100.00;100758.66;4960863;28;20042;-80
2023/12/04 07:01:43;;;;;;;12.75;10.77;;;;;;;0.27;100.00;100758.59;4990258;28;20502;-80
2023/12/04 07:04:09;;;;;;;11.70;10.50;;;;;;;0.29;100.00;100751.63;4966700;28;20061;-81
2023/12/04 07:06:39;;;;;;;12.75;10.65;;;;;;;0.29;100.00;100741.28;4969654;28;20030;-81
2023/12/04 07:09:07;;;;;;;11.68;10.45;;;;;;;0.29;100.00;100741.28;4984496;28;20064;-80
2023/12/04 07:11:32;;;;;;;11.90;10.60;;;;;;;0.30;100.00;100742.97;4985023;28;20029;-80
2023/12/04 07:13:58;;;;;;;12.77;10.95;;;;;;;0.28;100.00;100739.59;4988700;28;20129;-80
2023/12/04 07:16:23;;;;;;;12.27;9.80;;;;;;;0.27;100.00;100743.06;4970131;28;20034;-80
2023/12/04 07:18:49;;;;;;;11.20;10.10;;;;;;;0.26;100.00;100737.06;4969043;28;20030;-81
2023/12/04 07:21:14;;;;;;;12.15;10.00;;;;;;;0.26;100.00;100741.38;4989405;28;20296;-80
2023/12/04 07:23:39;;;;;;;12.52;10.07;;;;;;;0.24;100.00;100751.78;4970841;28;20022;-81
2023/12/04 07:26:06;;;;;;;10.88;9.77;;;;;;;0.24;100.00;100743.19;4963580;28;20030;-80
2023/12/04 07:28:32;;;;;;;12.32;10.50;;;;;;;0.25;100.00;100742.28;4983543;28;20467;-80
2023/12/04 07:30:58;;;;;;;11.80;10.18;;;;;;;0.24;100.00;100740.59;4989144;28;20030;-80
2023/12/04 07:33:23;;;;;;;11.25;10.05;;;;;;;0.22;100.00;100738.06;4968533;28;20406;-80
2023/12/04 07:35:48;;;;;;;10.90;9.70;;;;;;;0.22;100.00;100732.88;4988733;28;20105;-80
2023/12/04 07:38:14;;;;;;;12.38;10.50;;;;;;;0.23;100.00;100741.47;4987563;28;20038;-81
2023/12/04 07:40:39;;;;;;;11.48;9.98;;;;;;;0.23;100.00;100746.66;4969797;28;20057;-81
2023/12/04 07:43:05;;;;;;;11.80;9.65;;;;;;;0.22;100.00;100735.47;4988058;28;20108;-81
2023/12/04 07:45:30;;;;;;;10.65;9.55;;;;;;;0.22;100.00;100740.63;4985387;28;20030;-81
2023/12/04 07:47:56;;;;;;;10.10;8.93;;;;;;;0.23;100.00;100736.31;4966490;28;20022;-80
2023/12/04 07:50:21;;;;;;;13.55;9.60;;;;;;;0.22;100.00;100730.28;4988614;28;20026;-80
2023/12/04 07:52:46;;;;;;;10.27;8.82;;;;;;;0.23;100.00;100731.13;4988930;28;20023;-80
2023/12/04 07:55:12;;;;;;;11.55;9.20;;;;;;;0.24;100.00;100728.50;4987360;28;20097;-80
2023/12/04 07:57:38;;;;;;;10.98;9.23;;;;;;;0.26;100.00;100723.28;4988531;28;20034;-80
2023/12/04 08:00:04;;;;;;;10.57;8.90;;;;;;;0.27;100.00;100722.38;4974860;28;20037;-80
2023/12/04 08:02:29;;;;;;;9.80;8.77;;;;;;;0.27;100.00;100719.78;4983697;28;20129;-81
2023/12/04 08:04:54;;;;;;;11.68;8.75;;;;;;;0.27;100.00;100717.19;4972229;28;20026;-80
2023/12/04 08:07:20;;;;;;;10.23;8.82;;;;;;;0.27;100.00;100712.88;4971160;28;20026;-80
2023/12/04 08:09:45;;;;;;;10.32;8.75;;;;;;;0.27;100.00;100707.69;4989268;28;20034;-80
2023/12/04 08:12:11;;;;;;;9.70;8.45;;;;;;;0.29;100.00;100710.22;4969089;28;20030;-79
2023/12/04 08:14:36;;;;;;;10.32;8.57;;;;;;;0.29;100.00;100710.22;4986147;28;20058;-80
2023/12/04 08:17:01;;;;;;;10.30;8.82;;;;;;;0.30;100.00;100711.91;4969914;28;20022;-80
2023/12/04 08:19:27;;;;;;;10.10;8.48;;;;;;;0.30;100.00;100704.16;4987608;28;20398;-80
2023/12/04 08:21:52;;;;;;;11.13;9.00;;;;;;;0.31;100.00;100706.69;4972007;28;20050;-79
2023/12/04 08:24:18;;;;;;;10.90;9.18;;;;;;;0.31;100.00;100708.44;4987915;28;20029;-81
2023/12/04 08:26:45;;;;;;;10.10;9.02;;;;;;;0.31;100.00;100703.25;4989757;28;20034;-80
2023/12/04 08:29:11;;;;;;;9.80;8.73;;;;;;;0.31;100.00;100700.66;4970445;28;20161;-80
2023/12/04 08:31:36;;;;;;;12.00;9.07;;;;;;;0.30;100.00;100696.41;4988716;28;20026;-80
2023/12/04 08:34:01;;;;;;;10.00;8.73;;;;;;;0.32;99.20;100694.59;4987849;28;20165;-80
2023/12/04 08:36:30;;;;;;;10.68;8.40;;;;;;;0.32;100.00;100685.09;4970046;28;20046;-79
2023/12/04 08:38:55;;;;;;;9.98;8.43;;;;;;;0.34;99.46;100684.19;4970914;28;20038;-80
2023/12/04 08:41:20;;;;;;;11.63;8.77;;;;;;;0.34;99.74;100679.88;4968152;28;20036;-81
2023/12/04 08:43:46;;;;;;;11.68;8.60;;;;;;;0.35;100.00;100672.94;4985358;28;20037;-79
2023/12/04 08:46:14;;;;;;;9.50;8.48;;;;;;;0.35;99.75;100668.63;4969552;28;20045;-80
2023/12/04 08:48:43;;;;;;;9.40;8.40;;;;;;;0.36;98.28;100662.53;4970515;28;20330;-79
2023/12/04 08:51:15;;;;;;;10.27;9.00;;;;;;;0.38;100.00;100655.56;4968097;28;20046;-79
2023/12/04 08:53:40;;;;;;;9.77;8.77;;;;;;;0.38;99.64;100652.97;4970162;28;20038;-79
2023/12/04 08:56:06;;;;;;;10.30;8.80;;;;;;;0.39;100.00;100644.31;4969339;28;20390;-79
2023/12/04 08:58:32;;;;;;;10.50;8.30;;;;;;;0.42;99.25;100643.41;4976954;28;20030;-79
2023/12/04 09:01:00;;;;;;;9.55;7.85;;;;;;;0.43;98.25;100645.09;4954867;28;20037;-80
2023/12/04 09:03:25;;;;;;;9.75;8.35;;;;;;;0.44;99.51;100647.63;4966706;28;20034;-79
2023/12/04 09:05:51;;;;;;;10.25;8.43;;;;;;;0.46;98.04;100645.81;4968588;28;20073;-80
2023/12/04 09:08:18;;;;;;;8.90;7.80;;;;;;;0.48;96.84;100645.75;4986410;28;20027;-79
2023/12/04 09:10:45;;;;;;;10.02;8.30;;;;;;;0.49;97.25;100650.03;4986309;28;20065;-79
2023/12/04 09:13:11;;;;;;;8.70;7.80;;;;;;;0.51;98.03;100648.22;4979314;28;20080;-79
2023/12/04 09:15:36;;;;;;;8.80;7.90;;;;;;;0.51;97.74;100643.91;4958763;28;20027;-80
2023/12/04 09:18:01;;;;;;;9.60;7.57;;;;;;;0.52;97.83;100653.34;4992126;28;20054;-79
2023/12/04 09:20:27;;;;;;;8.52;7.60;;;;;;;0.54;97.52;100642.94;4975573;28;20026;-79
2023/12/04 09:22:52;;;;;;;9.75;7.78;;;;;;;0.56;95.80;100644.56;4993233;28;20026;-79
2023/12/04 09:25:18;;;;;;;8.65;7.75;;;;;;;0.57;95.88;100638.50;4975860;28;20053;-79
2023/12/04 09:27:43;;;;;;;8.60;7.72;;;;;;;0.60;96.95;100632.38;4984218;28;20029;-79
2023/12/04 09:30:09;;;;;;;9.70;7.75;;;;;;;0.62;96.92;100636.59;4992729;28;20030;-79
2023/12/04 09:32:34;;;;;;;8.73;7.78;;;;;;;0.63;97.98;100642.59;4992115;28;20031;-79
2023/12/04 09:35:00;;;;;;;10.25;7.90;;;;;;;0.67;98.91;100643.34;4992423;28;20018;-79
2023/12/04 09:37:25;;;;;;;9.75;7.95;;;;;;;0.68;96.67;100642.44;4990822;28;20049;-79
2023/12/04 09:39:50;;;;;;;8.93;8.02;;;;;;;0.71;96.48;100639.72;4992234;28;20022;-79
2023/12/04 09:42:18;;;;;;;9.15;8.13;;;;;;;0.73;94.66;100641.38;4972144;28;20085;-80
2023/12/04 09:44:43;;;;;;;10.15;7.47;;;;;;;0.76;95.74;100640.41;4988778;28;20014;-79
2023/12/04 09:47:10;;;;;;;8.93;7.32;;;;;;;0.78;96.00;100646.38;4991662;28;20042;-80
2023/12/04 09:49:35;;;;;;;10.70;7.78;;;;;;;0.80;95.08;100639.38;4974644;28;20125;-79
2023/12/04 09:52:04;;;;;;;8.55;7.65;;;;;;;0.83;94.95;100637.56;4987724;28;20578;-79
2023/12/04 09:54:30;;;;;;;11.18;7.65;;;;;;;0.84;95.63;100639.25;4989276;28;20041;-80
2023/12/04 09:56:56;;;;;;;9.13;7.93;;;;;;;0.85;96.25;100642.69;4991847;28;20034;-80
2023/12/04 09:59:25;;;;;;;9.45;8.20;;;;;;;0.83;96.60;100631.53;4973375;28;20026;-80
2023/12/04 10:01:51;;;;;;;11.07;8.13;;;;;;;0.85;95.98;100633.16;4973738;28;20046;-80
2023/12/04 10:04:16;;;;;;;9.10;8.13;;;;;;;0.86;95.15;100629.69;4990686;28;20100;-80
2023/12/04 10:06:43;;;;;;;9.20;8.13;;;;;;;0.88;95.54;100634.78;4990692;28;20022;-80
2023/12/04 10:09:11;;;;;;;9.10;7.97;;;;;;;0.88;96.72;100622.69;4989003;28;20452;-80
2023/12/04 10:11:42;;;;;;;9.05;8.15;;;;;;;0.90;96.45;100622.63;4990997;28;20026;-80
2023/12/04 10:14:21;;;;;;;9.70;8.38;;;;;;;0.92;96.29;100616.50;4983088;28;20032;-80
2023/12/04 10:16:47;;;;;;;10.18;8.50;;;;;;;0.92;96.09;100613.91;4986239;28;20037;-80
2023/12/04 10:19:30;;;;;;;9.38;8.18;;;;;;;0.94;96.17;100613.84;4991759;28;20077;-80
2023/12/04 10:21:59;;;;;;;;;;;;;;;1.02;96.03;100609.19;4991738;28;20022;-80
2023/12/04 10:24:30;;;;;;;9.13;8.15;;;;;;;0.99;95.25;100598.13;4974425;28;19979;-80
2023/12/04 10:26:56;;;;;;;10.88;8.95;;;;;;;0.99;95.06;100593.78;4989561;28;20109;-79
2023/12/04 10:29:22;;;;;;;10.45;8.98;;;;;;;1.02;95.51;100588.47;4989003;28;20165;-80
2023/12/04 10:31:50;;;;;;;11.60;9.05;;;;;;;1.04;95.14;100580.66;4976577;28;20077;-79
2023/12/04 10:34:18;;;;;;;11.35;9.20;;;;;;;1.06;94.12;100587.47;4990719;28;20402;-80
2023/12/04 10:36:45;;;;;;;11.25;9.50;;;;;;;1.08;94.89;100577.88;4973029;28;20074;-79
2023/12/04 10:39:13;;;;;;;10.98;9.73;;;;;;;1.10;95.37;100559.69;4991116;28;20390;-79
2023/12/04 10:41:38;;;;;;;10.63;9.40;;;;;;;1.13;94.28;100565.59;4978810;28;20022;-79
2023/12/04 10:44:04;;;;;;;10.85;9.32;;;;;;;1.14;94.48;100551.72;4986686;28;20080;-80
2023/12/04 10:46:31;;;;;;;11.40;10.20;;;;;;;1.16;95.12;100554.25;4986477;28;20027;-79
2023/12/04 10:48:58;;;;;;;13.80;9.70;;;;;;;1.18;95.07;100550.69;4985174;28;20081;-80
2023/12/04 10:51:25;;;;;;;12.45;10.25;;;;;;;1.22;95.19;100548.84;4969941;28;20038;-80
2023/12/04 10:53:51;;;;;;;11.95;10.30;;;;;;;1.25;94.22;100538.34;4969772;28;20030;-80
2023/12/04 10:56:27;;;;;;;13.60;10.15;;;;;;;1.29;94.05;100526.97;4971221;28;20034;-80
2023/12/04 10:58:54;;;;;;;13.40;10.68;;;;;;;1.29;94.82;100533.91;4983030;28;20077;-80
2023/12/04 11:01:23;;;;;;;12.70;10.25;;;;;;;1.31;94.44;100530.31;4955122;28;20394;-80
2023/12/04 11:03:53;;;;;;;11.75;10.25;;;;;;;1.35;93.85;100528.44;4953269;28;20023;-80
2023/12/04 11:06:21;;;;;;;11.65;10.43;;;;;;;1.36;92.76;100514.59;4953015;28;20665;-80
2023/12/04 11:08:48;;;;;;;12.10;10.80;;;;;;;1.39;92.80;100514.47;4987720;28;20026;-81